Hauptseite
METAR-TAF:

METAR-TAF

Flughäfen :

Flughafen Wallis Hihifo

Wallis, Frankreich

Breite: 13-14S, Länge: 176-10W, Höhe: 23 m

METAR: fehlend

Zeit: 16:33 (04:33 UTC)

Prognose

Neuester Wetterbericht von vor 5 Stunden und 33 Minuten, um 23:00 UTC
Gültige Prognose vom 19 um 00 UTC bis 19 um 24 UTC
Wind 2 kt aus unterschiedlichen Richtungen
Sichtweite 10 km oder mehr
Leicht bewölkt in der Höhe von 2000 ft
Wahrscheinlichkeit 40% :
Zeitweise
vom 19 um 12 UTC bis 19 um 16 UTC
Sichtweite: 4000 m
Leicht bewölkt in der Höhe von 2000 ft, Kumulonimbus.
Regenschauer

TAF: NLWW 182300Z 1900/1924 VRB02KT 9999 FEW020 PROB40 TEMPO 1912/1916 4000 SHRA FEW020CB

Wetterbeobachtungen und Prognosen von mehr als 4000 Flughäfen (METAR und TAF Bericht).

Die verfügbaren Stationen werden durch gelbe und rote Markierungen auf der Karte dargestellt.

Führen Sie die Maus auf sie, um den Namen der Station zu sehen.

Darauf klicken, um die Beobachtung von Wetterbeobachtungen und Prognosen zu sehen.

Um die Karte zu ändern : klicken Sie auf den grünen Tasten mit einem schwarzen Kreuz Zum Vergrößern, auf den grünen Button mit einem Gedankenstrich zu verkleinern, oder auf die grünen Pfeile für benachbarte Karten.


METAR-TAF: